createdAt,value
2017-04-10T00:00:45.980Z,70.10
2017-04-10T00:01:44.422Z,70.40
2017-04-10T00:02:43.035Z,70.80
2017-04-10T00:03:41.479Z,71.50
2017-04-10T00:04:39.956Z,71.30
2017-04-10T00:05:38.419Z,71.50
2017-04-10T00:06:36.856Z,72.10
2017-04-10T00:07:35.238Z,72.90
2017-04-10T00:08:33.781Z,72.50
2017-04-10T00:09:32.933Z,73.90
2017-04-10T00:10:31.526Z,73.90
2017-04-10T00:11:30.057Z,73.70
2017-04-10T00:12:28.445Z,72.90
2017-04-10T00:13:26.925Z,74.00
2017-04-10T00:14:25.719Z,74.00
2017-04-10T00:15:24.896Z,74.20
2017-04-10T00:16:23.292Z,73.30
2017-04-10T00:17:22.491Z,72.50
2017-04-10T00:18:20.876Z,72.40
2017-04-10T00:19:19.390Z,72.70
2017-04-10T00:20:17.824Z,72.90
2017-04-10T00:21:17.071Z,72.40
2017-04-10T00:22:16.282Z,73.10
2017-04-10T00:23:15.424Z,72.30
2017-04-10T00:24:13.824Z,72.30
2017-04-10T00:25:13.056Z,72.50
2017-04-10T00:26:11.480Z,72.40
2017-04-10T00:27:10.635Z,73.30
2017-04-10T00:28:09.808Z,72.80
2017-04-10T00:29:08.229Z,72.80
2017-04-10T00:30:07.495Z,75.40
2017-04-10T00:31:07.418Z,75.00
2017-04-10T00:32:06.604Z,74.50
2017-04-10T00:33:06.040Z,74.90
2017-04-10T00:34:05.405Z,75.60
2017-04-10T00:35:04.564Z,75.60
2017-04-10T00:36:03.000Z,75.60
2017-04-10T00:37:01.436Z,76.50
2017-04-10T00:38:00.975Z,75.30
2017-04-10T00:38:59.380Z,75.30
2017-04-10T00:39:59.082Z,75.40
2017-04-10T00:40:58.424Z,76.40
2017-04-10T00:41:56.825Z,76.30
2017-04-10T00:42:55.219Z,77.70
2017-04-10T00:43:54.470Z,77.40
2017-04-10T00:44:52.910Z,77.40
2017-04-10T00:45:51.311Z,76.50
2017-04-10T00:46:50.000Z,76.70
2017-04-10T00:47:48.404Z,76.10
2017-04-10T00:48:47.560Z,76.50
2017-04-10T00:49:45.994Z,76.50
2017-04-10T00:50:44.390Z,76.00
2017-04-10T00:51:42.943Z,76.70
2017-04-10T00:52:42.139Z,76.40
2017-04-10T00:53:40.627Z,77.10
2017-04-10T00:54:39.091Z,75.60
2017-04-10T00:55:37.469Z,74.70
2017-04-10T00:56:35.935Z,74.00
2017-04-10T00:57:34.399Z,73.40
2017-04-10T00:58:32.806Z,73.50
2017-04-10T00:59:31.191Z,73.40
2017-04-10T01:00:29.657Z,73.00
2017-04-10T01:01:28.073Z,73.70
2017-04-10T01:02:26.582Z,73.30
2017-04-10T01:03:25.166Z,73.30
2017-04-10T01:04:23.588Z,73.10
2017-04-10T01:05:22.031Z,72.60
2017-04-10T01:06:21.280Z,72.60
2017-04-10T01:07:19.829Z,72.60
2017-04-10T01:08:19.789Z,72.10
2017-04-10T01:09:19.052Z,72.10
2017-04-10T01:10:18.226Z,71.60
2017-04-10T01:11:16.622Z,71.80
2017-04-10T01:12:16.559Z,72.30
2017-04-10T01:13:15.692Z,72.80
2017-04-10T01:14:14.256Z,72.70
2017-04-10T01:15:12.889Z,73.90
2017-04-10T01:16:12.064Z,73.70
2017-04-10T01:17:11.536Z,73.90
2017-04-10T01:18:09.939Z,73.90
2017-04-10T01:19:09.153Z,74.40
2017-04-10T01:20:07.591Z,74.30
2017-04-10T01:21:07.101Z,74.80
2017-04-10T01:22:06.275Z,75.30
2017-04-10T01:23:05.430Z,75.90
2017-04-10T01:24:03.868Z,75.80
2017-04-10T01:25:03.116Z,75.30
2017-04-10T01:26:02.358Z,74.90
2017-04-10T01:27:00.783Z,74.80
2017-04-10T01:28:00.461Z,74.60
2017-04-10T01:28:58.877Z,74.50
2017-04-10T01:29:58.427Z,73.70
2017-04-10T01:30:58.352Z,74.80
2017-04-10T01:31:58.728Z,74.60
2017-04-10T01:32:57.153Z,74.60
2017-04-10T01:33:55.544Z,74.10
2017-04-10T01:34:53.915Z,73.70
2017-04-10T01:35:52.371Z,74.40
2017-04-10T01:36:50.796Z,72.90
2017-04-10T01:37:49.275Z,72.90
2017-04-10T01:38:48.470Z,73.40
2017-04-10T01:39:47.644Z,73.50
2017-04-10T01:40:46.096Z,73.50
2017-04-10T01:41:44.542Z,73.90
2017-04-10T01:42:43.772Z,73.80
2017-04-10T01:43:42.224Z,73.80
2017-04-10T01:44:40.705Z,73.90
2017-04-10T01:45:39.100Z,73.20
2017-04-10T01:46:38.261Z,73.90
2017-04-10T01:47:36.724Z,73.70
2017-04-10T01:48:35.124Z,73.00
2017-04-10T01:49:33.477Z,72.70
2017-04-10T01:50:31.844Z,74.10
2017-04-10T01:51:30.250Z,73.90
2017-04-10T01:52:28.636Z,73.70
2017-04-10T01:53:27.057Z,73.00
2017-04-10T01:54:25.476Z,73.60
2017-04-10T01:55:23.836Z,74.30
2017-04-10T01:56:22.232Z,75.10
2017-04-10T01:57:21.508Z,76.40
2017-04-10T01:58:19.877Z,76.40
2017-04-10T01:59:18.267Z,76.20
2017-04-10T02:00:17.433Z,76.10
2017-04-10T02:01:16.628Z,75.80
2017-04-10T02:02:15.889Z,75.70
2017-04-10T02:03:14.311Z,75.70
2017-04-10T02:04:13.482Z,75.40
2017-04-10T02:05:12.641Z,75.80
2017-04-10T02:06:11.015Z,75.80
2017-04-10T02:07:09.391Z,76.00
2017-04-10T02:08:07.846Z,75.70
2017-04-10T02:09:06.258Z,76.10
2017-04-10T02:10:05.405Z,76.10
2017-04-10T02:11:05.293Z,76.90
2017-04-10T02:12:03.713Z,76.90
2017-04-10T02:13:02.860Z,76.50
2017-04-10T02:14:02.843Z,76.20
2017-04-10T02:15:01.249Z,75.70
2017-04-10T02:15:59.827Z,75.00
2017-04-10T02:16:58.185Z,74.70
2017-04-10T02:17:57.458Z,75.90
2017-04-10T02:18:55.816Z,75.80
2017-04-10T02:19:54.988Z,75.90
2017-04-10T02:20:53.364Z,75.90
2017-04-10T02:21:51.787Z,75.50
2017-04-10T02:22:51.122Z,76.00
2017-04-10T02:23:49.804Z,75.90
2017-04-10T02:24:48.194Z,75.50
2017-04-10T02:25:46.600Z,74.70
2017-04-10T02:26:45.024Z,74.70
2017-04-10T02:27:43.392Z,75.20
2017-04-10T02:28:41.891Z,75.30
2017-04-10T02:29:40.649Z,74.90
2017-04-10T02:30:39.889Z,75.20
2017-04-10T02:31:39.055Z,75.90
2017-04-10T02:32:37.446Z,75.90
2017-04-10T02:33:36.621Z,76.30
2017-04-10T02:34:36.101Z,76.10
2017-04-10T02:35:34.564Z,76.10
2017-04-10T02:36:33.020Z,76.60
2017-04-10T02:37:31.434Z,77.60
2017-04-10T02:38:30.834Z,77.80
2017-04-10T02:39:29.948Z,77.50
2017-04-10T02:40:28.317Z,77.50
2017-04-10T02:41:26.953Z,77.30
2017-04-10T02:42:26.153Z,78.00
2017-04-10T02:43:25.806Z,78.20
2017-04-10T02:44:24.243Z,78.20
2017-04-10T02:45:22.644Z,78.40
2017-04-10T02:46:21.032Z,77.80
2017-04-10T02:47:19.386Z,76.80
2017-04-10T02:48:17.826Z,76.90
2017-04-10T02:49:16.961Z,77.50
2017-04-10T02:50:16.089Z,78.70
2017-04-10T02:51:15.221Z,78.20
2017-04-10T02:52:13.569Z,78.20
2017-04-10T02:53:12.091Z,78.00
2017-04-10T02:54:11.264Z,77.60
2017-04-10T02:55:10.436Z,77.40
2017-04-10T02:56:08.817Z,77.30
2017-04-10T02:57:07.203Z,77.10
2017-04-10T02:58:05.609Z,77.40
2017-04-10T02:59:04.000Z,76.70
2017-04-10T03:00:02.619Z,76.60
2017-04-10T03:01:01.809Z,77.00
2017-04-10T03:02:00.236Z,76.90
2017-04-10T03:02:58.592Z,77.10
2017-04-10T03:03:56.973Z,77.80
2017-04-10T03:04:55.503Z,77.00
2017-04-10T03:05:54.089Z,77.10
2017-04-10T03:06:52.497Z,77.40
2017-04-10T03:07:51.034Z,77.50
2017-04-10T03:08:50.277Z,76.50
2017-04-10T03:09:50.117Z,78.00
2017-04-10T03:10:48.520Z,76.90
2017-04-10T03:11:46.961Z,77.30
2017-04-10T03:12:45.378Z,77.40
2017-04-10T03:13:43.844Z,77.90
2017-04-10T03:14:42.282Z,78.10
2017-04-10T03:15:40.664Z,78.70
2017-04-10T03:16:39.052Z,78.90
2017-04-10T03:17:37.437Z,79.20
2017-04-10T03:18:36.612Z,80.40
2017-04-10T03:19:36.548Z,79.70
2017-04-10T03:20:37.912Z,79.30
2017-04-10T03:21:36.324Z,79.20
2017-04-10T03:22:34.721Z,78.90
2017-04-10T03:23:33.952Z,77.20
2017-04-10T03:24:32.327Z,77.20
2017-04-10T03:25:30.819Z,77.10
2017-04-10T03:26:29.991Z,78.00
2017-04-10T03:27:28.338Z,78.10
2017-04-10T03:28:26.728Z,78.20
2017-04-10T03:29:25.126Z,78.20
2017-04-10T03:30:24.264Z,78.20
2017-04-10T03:31:22.661Z,78.20
2017-04-10T03:32:21.112Z,77.90
2017-04-10T03:33:19.559Z,77.90
2017-04-10T03:34:17.924Z,78.50
2017-04-10T03:35:16.356Z,78.70
2017-04-10T03:36:14.716Z,78.80
2017-04-10T03:37:13.247Z,78.60
2017-04-10T03:38:13.033Z,78.40
2017-04-10T03:39:11.404Z,78.30
2017-04-10T03:40:09.757Z,78.10
2017-04-10T03:41:08.937Z,77.00
2017-04-10T03:42:08.134Z,76.80
2017-04-10T03:43:07.368Z,76.90
2017-04-10T03:44:05.730Z,76.70
2017-04-10T03:45:04.100Z,77.60
2017-04-10T03:46:02.526Z,77.50
2017-04-10T03:47:01.668Z,77.10
2017-04-10T03:48:00.069Z,77.10
2017-04-10T03:48:58.507Z,77.70
2017-04-10T03:49:56.872Z,78.20
2017-04-10T03:50:55.476Z,77.80
2017-04-10T03:51:53.870Z,78.00
2017-04-10T03:52:52.261Z,77.30
2017-04-10T03:53:50.852Z,76.90
2017-04-10T03:54:49.271Z,76.60
2017-04-10T03:55:47.807Z,76.90
2017-04-10T03:56:46.268Z,77.20
2017-04-10T03:57:44.644Z,77.30
2017-04-10T03:58:43.016Z,77.10
2017-04-10T03:59:42.272Z,76.90
2017-04-10T04:00:40.781Z,76.90
2017-04-10T04:01:39.294Z,77.30
2017-04-10T04:02:37.813Z,78.20
2017-04-10T04:03:36.234Z,77.80
2017-04-10T04:04:34.657Z,78.40
2017-04-10T04:05:33.149Z,78.80
2017-04-10T04:06:32.407Z,78.30
2017-04-10T04:07:30.794Z,78.10
2017-04-10T04:08:29.981Z,78.10
2017-04-10T04:09:29.132Z,77.80
2017-04-10T04:10:27.508Z,77.70
2017-04-10T04:11:25.863Z,77.40
2017-04-10T04:12:25.025Z,76.90
2017-04-10T04:13:23.393Z,76.90
2017-04-10T04:14:21.852Z,77.00
2017-04-10T04:15:21.018Z,77.60
2017-04-10T04:16:20.210Z,77.80
2017-04-10T04:17:19.364Z,78.60
2017-04-10T04:18:17.731Z,78.40
2017-04-10T04:19:16.099Z,78.30
2017-04-10T04:20:14.520Z,78.90
2017-04-10T04:21:13.802Z,79.90
2017-04-10T04:22:13.161Z,80.50
2017-04-10T04:23:11.573Z,80.40
2017-04-10T04:24:10.709Z,80.30
2017-04-10T04:25:09.120Z,80.30
2017-04-10T04:26:08.294Z,81.10
2017-04-10T04:27:07.445Z,80.80
2017-04-10T04:28:05.805Z,80.60
2017-04-10T04:29:04.223Z,80.40
2017-04-10T04:30:03.412Z,79.80
2017-04-10T04:31:02.580Z,80.00
2017-04-10T04:32:00.939Z,79.80
2017-04-10T04:33:52.400Z,80.70
2017-04-10T04:34:51.531Z,81.10
2017-04-10T04:35:50.715Z,81.10
2017-04-10T04:36:49.069Z,81.00
2017-04-10T04:37:47.439Z,81.70
2017-04-10T04:38:45.833Z,82.10
2017-04-10T04:39:44.209Z,81.80
2017-04-10T04:40:42.685Z,80.50
2017-04-10T04:41:41.124Z,79.60
2017-04-10T04:42:39.496Z,79.50
2017-04-10T04:43:37.880Z,79.30
2017-04-10T04:44:36.289Z,78.90
2017-04-10T04:45:35.448Z,79.80
2017-04-10T04:46:34.104Z,79.80
2017-04-10T04:47:32.755Z,80.60
2017-04-10T04:48:31.123Z,81.00
2017-04-10T04:49:29.540Z,81.40
2017-04-10T04:50:27.946Z,81.40
2017-04-10T04:51:26.300Z,81.30
2017-04-10T04:52:25.428Z,81.10
2017-04-10T04:53:23.839Z,81.10
2017-04-10T04:54:22.180Z,81.00
2017-04-10T04:55:21.187Z,80.80
2017-04-10T04:56:19.552Z,80.60
2017-04-10T04:57:17.925Z,79.60
2017-04-10T04:58:17.802Z,78.80
2017-04-10T04:59:16.208Z,78.70
2017-04-10T05:00:14.621Z,78.90
2017-04-10T05:01:12.994Z,78.60
2017-04-10T05:02:12.162Z,79.00
2017-04-10T05:03:10.547Z,78.90
2017-04-10T05:04:08.964Z,79.00
2017-04-10T05:05:08.185Z,78.10
2017-04-10T05:06:06.549Z,78.00
2017-04-10T05:07:05.720Z,77.70
2017-04-10T05:08:04.872Z,77.70
2017-04-10T05:09:05.598Z,77.80
2017-04-10T05:10:04.027Z,77.80
2017-04-10T05:11:02.569Z,77.90
2017-04-10T05:12:01.765Z,78.40
2017-04-10T05:13:01.122Z,77.30
2017-04-10T05:13:59.548Z,77.30
2017-04-10T05:14:57.932Z,76.50
2017-04-10T05:15:56.292Z,76.30
2017-04-10T05:16:54.787Z,75.70
2017-04-10T05:17:53.974Z,75.10
2017-04-10T05:18:52.361Z,74.90
2017-04-10T05:19:52.288Z,74.50
2017-04-10T05:20:50.681Z,74.40
2017-04-10T05:21:49.177Z,74.60
2017-04-10T05:22:48.367Z,74.00
2017-04-10T05:23:46.753Z,74.00
2017-04-10T05:24:45.124Z,73.80
2017-04-10T05:25:43.740Z,73.70
2017-04-10T05:26:42.146Z,73.60
2017-04-10T05:27:40.512Z,73.50
2017-04-10T05:28:39.228Z,73.40
2017-04-10T05:29:37.637Z,72.60
2017-04-10T05:30:36.083Z,71.50
2017-04-10T05:31:35.245Z,69.20
2017-04-10T05:32:33.740Z,69.00
2017-04-10T05:33:33.074Z,66.70
2017-04-10T05:34:32.584Z,64.90
2017-04-10T05:35:30.978Z,64.80
2017-04-10T05:36:29.388Z,63.10
2017-04-10T05:37:29.296Z,60.10
2017-04-10T05:38:27.777Z,60.00
2017-04-10T05:39:26.253Z,58.50
2017-04-10T05:40:24.701Z,57.70
2017-04-10T05:41:23.463Z,57.20
2017-04-10T05:42:22.937Z,55.00
2017-04-10T05:43:21.338Z,54.80
2017-04-10T05:44:20.599Z,53.30
2017-04-10T05:45:18.960Z,53.20
2017-04-10T05:46:17.340Z,52.20
2017-04-10T05:47:16.907Z,51.90
2017-04-10T05:48:15.262Z,51.30
2017-04-10T05:49:13.793Z,51.00
2017-04-10T05:50:12.973Z,49.20
2017-04-10T05:51:12.360Z,48.70
2017-04-10T05:52:11.530Z,47.90
2017-04-10T05:53:09.969Z,47.70
2017-04-10T05:54:08.340Z,47.80
2017-04-10T05:55:07.494Z,45.90
2017-04-10T05:56:06.646Z,45.70
2017-04-10T05:57:06.007Z,45.10
2017-04-10T05:58:04.395Z,44.60
2017-04-10T05:59:02.875Z,44.00
2017-04-10T06:00:01.297Z,43.40
2017-04-10T06:00:59.693Z,43.30
2017-04-10T06:01:58.844Z,42.90
2017-04-10T06:02:57.270Z,42.90
2017-04-10T06:03:55.703Z,42.70
2017-04-10T06:04:54.151Z,42.60
2017-04-10T06:05:53.351Z,42.10
2017-04-10T06:06:51.736Z,42.00
2017-04-10T06:07:50.581Z,41.60
2017-04-10T06:08:49.066Z,42.00
2017-04-10T06:09:47.457Z,41.80
2017-04-10T06:10:45.869Z,41.40
2017-04-10T06:11:45.073Z,41.40
2017-04-10T06:12:44.237Z,41.20
2017-04-10T06:13:42.692Z,41.10
2017-04-10T06:14:41.103Z,40.90
2017-04-10T06:15:40.262Z,40.60
2017-04-10T06:16:39.456Z,40.20
2017-04-10T06:17:38.645Z,40.20
2017-04-10T06:18:37.026Z,39.90
2017-04-10T06:19:35.426Z,39.80
2017-04-10T06:20:34.540Z,38.80
2017-04-10T06:21:32.948Z,38.80
2017-04-10T06:22:32.085Z,39.50
2017-04-10T06:23:30.878Z,39.50
2017-04-10T06:24:47.431Z,39.40
2017-04-10T06:25:47.228Z,39.20
2017-04-10T06:26:46.405Z,39.40
2017-04-10T06:27:44.830Z,39.30
2017-04-10T06:28:43.319Z,38.70
2017-04-10T06:29:42.009Z,37.50
2017-04-10T06:30:40.416Z,37.20
2017-04-10T06:31:39.568Z,36.80
2017-04-10T06:32:37.938Z,36.90
2017-04-10T06:33:36.355Z,37.30
2017-04-10T06:34:34.785Z,36.80
2017-04-10T06:35:33.136Z,37.20
2017-04-10T06:36:31.511Z,37.10
2017-04-10T06:37:29.897Z,37.30
2017-04-10T06:38:29.113Z,36.50
2017-04-10T06:39:27.502Z,36.40
2017-04-10T06:40:26.047Z,36.40
2017-04-10T06:41:25.240Z,36.00
2017-04-10T06:42:23.675Z,36.00
2017-04-10T06:43:22.060Z,35.60
2017-04-10T06:44:21.180Z,34.70
2017-04-10T06:45:19.548Z,34.70
2017-04-10T06:46:17.986Z,34.70
2017-04-10T06:47:17.154Z,34.10
2017-04-10T06:48:15.541Z,34.00
2017-04-10T06:49:14.697Z,33.80
2017-04-10T06:50:13.072Z,33.70
2017-04-10T06:51:11.478Z,34.30
2017-04-10T06:52:09.957Z,34.50
2017-04-10T06:53:08.374Z,33.90
2017-04-10T06:54:06.799Z,34.00
2017-04-10T06:55:05.201Z,34.40
2017-04-10T06:56:03.674Z,34.80
2017-04-10T06:57:02.781Z,34.50
2017-04-10T06:58:02.320Z,33.80
2017-04-10T06:59:00.684Z,33.80
2017-04-10T06:59:59.130Z,33.90
2017-04-10T07:00:57.606Z,34.50
2017-04-10T07:01:56.861Z,35.30
2017-04-10T07:03:07.544Z,35.20
2017-04-10T07:04:05.912Z,35.40
2017-04-10T07:05:04.636Z,36.20
2017-04-10T07:06:03.884Z,36.10
2017-04-10T07:07:03.168Z,35.70
2017-04-10T07:08:02.589Z,36.10
2017-04-10T07:09:00.982Z,35.90
2017-04-10T07:09:59.420Z,36.50
2017-04-10T07:10:58.579Z,36.90
2017-04-10T07:11:56.964Z,36.90
2017-04-10T07:12:56.187Z,36.70
2017-04-10T07:13:54.556Z,36.20
2017-04-10T07:14:53.152Z,35.90
2017-04-10T07:15:52.386Z,34.80
2017-04-10T07:16:51.519Z,34.80
2017-04-10T07:17:50.044Z,34.80
2017-04-10T07:18:49.188Z,35.60
2017-04-10T07:19:47.554Z,35.00
2017-04-10T07:20:46.736Z,34.70
2017-04-10T07:21:45.125Z,34.70
2017-04-10T07:22:43.571Z,33.80
2017-04-10T07:23:42.261Z,32.80
2017-04-10T07:24:40.676Z,32.50
2017-04-10T07:25:39.834Z,31.40
2017-04-10T07:26:38.242Z,31.40
2017-04-10T07:27:37.417Z,30.30
2017-04-10T07:28:36.580Z,30.80
2017-04-10T07:29:35.149Z,30.70
2017-04-10T07:30:33.526Z,30.10
2017-04-10T07:31:32.122Z,28.70
2017-04-10T07:32:31.446Z,27.50
2017-04-10T07:33:29.852Z,27.50
2017-04-10T07:34:28.218Z,28.40
2017-04-10T07:35:26.592Z,28.70
2017-04-10T07:36:25.190Z,28.00
2017-04-10T07:37:24.360Z,28.40
2017-04-10T07:38:24.240Z,28.70
2017-04-10T07:39:23.732Z,28.90
2017-04-10T07:40:22.258Z,28.90
2017-04-10T07:41:21.784Z,28.40
2017-04-10T07:42:20.158Z,28.30
2017-04-10T07:43:18.561Z,28.70
2017-04-10T07:44:16.933Z,29.30
2017-04-10T07:45:15.389Z,29.90
2017-04-10T07:46:13.742Z,30.00
2017-04-10T07:47:12.884Z,29.30
2017-04-10T07:48:12.045Z,29.10
2017-04-10T07:49:10.720Z,29.00
2017-04-10T07:50:09.173Z,28.60
2017-04-10T07:51:07.613Z,28.70
2017-04-10T07:52:06.022Z,28.90
2017-04-10T07:53:04.479Z,28.30
2017-04-10T07:54:02.909Z,28.90
2017-04-10T07:55:02.300Z,28.70
2017-04-10T07:56:00.716Z,28.70
2017-04-10T07:56:59.896Z,28.60
2017-04-10T07:57:58.272Z,28.60
2017-04-10T07:58:56.636Z,29.00
2017-04-10T07:59:55.041Z,28.80
2017-04-10T08:00:54.296Z,26.90
2017-04-10T08:01:52.704Z,26.70
2017-04-10T08:02:51.174Z,25.60
2017-04-10T08:03:50.562Z,25.90
2017-04-10T08:04:49.975Z,25.00
2017-04-10T08:05:49.371Z,25.50
2017-04-10T08:06:48.504Z,25.70
2017-04-10T08:07:46.861Z,25.60
2017-04-10T08:08:45.492Z,26.00
2017-04-10T08:09:44.694Z,26.70
2017-04-10T08:10:43.111Z,26.80
2017-04-10T08:11:41.492Z,26.60
2017-04-10T08:12:41.376Z,25.80
2017-04-10T08:13:39.784Z,25.80
2017-04-10T08:14:38.976Z,26.50
2017-04-10T08:15:38.108Z,25.70
2017-04-10T08:16:36.497Z,25.60
2017-04-10T08:17:34.879Z,25.50
2017-04-10T08:18:33.252Z,25.40
2017-04-10T08:19:31.650Z,26.00
2017-04-10T08:20:30.896Z,26.80
2017-04-10T08:21:29.308Z,27.20
2017-04-10T08:22:28.496Z,25.90
2017-04-10T08:23:27.636Z,25.40
2017-04-10T08:24:26.882Z,25.20
2017-04-10T08:25:25.241Z,25.10
2017-04-10T08:26:24.527Z,26.60
2017-04-10T08:27:23.892Z,26.70
2017-04-10T08:28:23.858Z,26.70
2017-04-10T08:29:23.044Z,26.90
2017-04-10T08:30:21.413Z,26.40
2017-04-10T08:31:19.808Z,26.40
2017-04-10T08:32:18.971Z,25.90
2017-04-10T08:33:17.325Z,25.90
2017-04-10T08:34:15.706Z,26.00
2017-04-10T08:35:14.063Z,25.20
2017-04-10T08:36:12.868Z,25.70
2017-04-10T08:37:11.257Z,25.20
2017-04-10T08:38:09.690Z,24.60
2017-04-10T08:39:08.053Z,24.00
2017-04-10T08:40:07.202Z,23.80
2017-04-10T08:41:06.341Z,24.40
2017-04-10T08:42:04.950Z,24.40
2017-04-10T08:43:03.382Z,24.40
2017-04-10T08:44:01.804Z,22.50
2017-04-10T08:45:01.040Z,23.90
2017-04-10T08:46:00.192Z,23.30
2017-04-10T08:46:59.321Z,24.70
2017-04-10T08:47:58.533Z,23.60
2017-04-10T08:48:58.433Z,23.80
2017-04-10T08:49:56.845Z,23.80
2017-04-10T08:50:55.998Z,24.10
2017-04-10T08:51:55.219Z,24.00
2017-04-10T08:52:53.628Z,24.00
2017-04-10T08:53:52.216Z,23.50
2017-04-10T08:54:50.654Z,24.20
2017-04-10T08:55:50.448Z,24.00
2017-04-10T08:56:48.818Z,24.00
2017-04-10T08:57:47.203Z,23.90
2017-04-10T08:58:45.732Z,24.20
2017-04-10T08:59:45.019Z,24.40
2017-04-10T09:00:44.327Z,24.90
2017-04-10T09:01:43.567Z,25.50
2017-04-10T09:02:42.016Z,25.50
2017-04-10T09:03:41.969Z,23.60
2017-04-10T09:04:40.456Z,23.60
2017-04-10T09:05:39.627Z,23.00
2017-04-10T09:06:38.032Z,23.00
2017-04-10T09:07:36.474Z,23.30
2017-04-10T09:08:35.645Z,24.00
2017-04-10T09:09:34.184Z,24.00
2017-04-10T09:10:32.594Z,24.00
2017-04-10T09:11:30.972Z,24.90
2017-04-10T09:12:30.116Z,24.70
2017-04-10T09:13:29.318Z,24.90
2017-04-10T09:14:27.825Z,24.90
2017-04-10T09:15:26.984Z,24.50
2017-04-10T09:16:25.468Z,24.50
2017-04-10T09:17:23.904Z,24.60
2017-04-10T09:19:22.549Z,25.70
2017-04-10T09:20:20.949Z,25.80
2017-04-10T09:21:20.071Z,25.30
2017-04-10T09:22:18.444Z,25.30
2017-04-10T09:23:16.812Z,26.00
2017-04-10T09:24:15.941Z,24.60
2017-04-10T09:25:14.325Z,24.60
2017-04-10T09:26:13.517Z,23.90
2017-04-10T09:27:12.657Z,23.90
2017-04-10T09:28:11.912Z,23.20
2017-04-10T09:29:10.395Z,23.20
2017-04-10T09:30:09.576Z,22.50
2017-04-10T09:31:07.970Z,22.40
2017-04-10T09:32:06.373Z,21.60
2017-04-10T09:33:05.520Z,22.40
2017-04-10T09:34:04.213Z,22.20
2017-04-10T09:35:04.318Z,22.20
2017-04-10T09:36:03.226Z,22.20
2017-04-10T09:37:02.468Z,23.60
2017-04-10T09:38:00.841Z,23.40
2017-04-10T09:38:59.240Z,22.70
2017-04-10T09:39:59.169Z,22.80
2017-04-10T09:40:58.336Z,22.50
2017-04-10T09:41:56.776Z,22.50
2017-04-10T09:42:55.909Z,22.20
2017-04-10T09:43:55.167Z,22.80
2017-04-10T09:44:53.683Z,22.80
2017-04-10T09:45:53.149Z,23.90
2017-04-10T09:46:51.536Z,23.80
2017-04-10T09:47:51.035Z,23.20
2017-04-10T09:48:50.229Z,23.80
2017-04-10T09:49:49.439Z,24.50
2017-04-10T09:50:48.601Z,22.80
2017-04-10T09:51:47.793Z,23.60
2017-04-10T09:52:46.933Z,24.00
2017-04-10T09:53:45.346Z,24.00
2017-04-10T09:54:44.554Z,24.00
2017-04-10T09:55:43.012Z,24.00
2017-04-10T09:56:42.156Z,23.50
2017-04-10T09:57:40.632Z,23.50
2017-04-10T09:58:39.860Z,24.50
2017-04-10T09:59:38.270Z,24.50
2017-04-10T10:00:36.830Z,24.40
2017-04-10T10:01:35.979Z,24.70
2017-04-10T10:02:35.149Z,24.10
2017-04-10T10:03:34.360Z,25.60
2017-04-10T10:04:33.745Z,25.60
2017-04-10T10:05:32.872Z,26.80
2017-04-10T10:06:31.270Z,26.80
2017-04-10T10:07:29.621Z,27.50
2017-04-10T10:08:28.776Z,27.40
2017-04-10T10:09:27.188Z,27.40
2017-04-10T10:10:25.598Z,27.50
2017-04-10T10:11:24.741Z,26.60
2017-04-10T10:12:23.121Z,26.60
2017-04-10T10:13:21.502Z,26.50
2017-04-10T10:14:20.656Z,26.20
2017-04-10T10:15:19.879Z,23.90
2017-04-10T10:16:19.062Z,25.50
2017-04-10T10:17:18.210Z,25.70
2017-04-10T10:18:16.609Z,25.30
2017-04-10T10:19:16.506Z,23.90
2017-04-10T10:20:14.884Z,23.80
2017-04-10T10:21:13.313Z,23.60
2017-04-10T10:22:11.721Z,24.40
2017-04-10T10:23:10.095Z,23.60
2017-04-10T10:24:09.243Z,23.70
2017-04-10T10:25:07.633Z,23.70
2017-04-10T10:26:06.772Z,23.50
2017-04-10T10:27:05.190Z,23.70
2017-04-10T10:28:04.341Z,24.20
2017-04-10T10:29:02.734Z,24.10
2017-04-10T10:30:01.917Z,25.30
2017-04-10T10:31:00.317Z,25.00
2017-04-10T10:31:58.722Z,25.50
2017-04-10T10:32:57.933Z,26.10
2017-04-10T10:33:56.377Z,26.00
2017-04-10T10:34:54.784Z,25.10
2017-04-10T10:35:53.413Z,25.80
2017-04-10T10:36:52.568Z,25.10
2017-04-10T10:37:51.305Z,25.80
2017-04-10T10:38:50.494Z,25.00
2017-04-10T10:39:48.933Z,25.00
2017-04-10T10:40:48.089Z,25.20
2017-04-10T10:41:47.981Z,24.70
2017-04-10T10:42:46.416Z,24.70
2017-04-10T10:43:45.582Z,24.50
2017-04-10T10:44:44.796Z,24.70
2017-04-10T10:45:43.167Z,24.60
2017-04-10T10:46:42.298Z,26.70
2017-04-10T10:47:40.645Z,26.80
2017-04-10T10:48:39.033Z,27.70
2017-04-10T10:49:37.375Z,28.60
2017-04-10T10:50:36.546Z,28.00
2017-04-10T10:51:35.717Z,27.70
2017-04-10T10:52:34.145Z,27.80
2017-04-10T10:53:32.873Z,28.10
2017-04-10T10:54:31.249Z,28.90
2017-04-10T10:55:29.643Z,29.10
2017-04-10T10:56:28.086Z,29.70
2017-04-10T10:57:26.436Z,30.30
2017-04-10T10:58:24.913Z,30.90
2017-04-10T10:59:23.349Z,31.20
2017-04-10T11:00:21.762Z,30.00
2017-04-10T11:01:21.031Z,29.90
2017-04-10T11:02:20.150Z,28.60
2017-04-10T11:03:20.039Z,28.30
2017-04-10T11:04:18.425Z,28.20
2017-04-10T11:05:16.774Z,27.40
2017-04-10T11:06:15.146Z,27.40
2017-04-10T11:07:13.636Z,28.00
2017-04-10T11:08:12.005Z,29.20
2017-04-10T11:09:11.159Z,29.50
2017-04-10T11:10:10.293Z,29.50
2017-04-10T11:11:08.719Z,29.50
2017-04-10T11:12:07.911Z,29.80
2017-04-10T11:13:07.073Z,30.90
2017-04-10T11:14:06.256Z,30.80
2017-04-10T11:15:04.616Z,30.70
2017-04-10T11:16:02.980Z,29.60
2017-04-10T11:17:02.105Z,28.20
2017-04-10T11:18:00.468Z,27.60
2017-04-10T11:18:59.638Z,26.90
2017-04-10T11:19:58.769Z,26.40
2017-04-10T11:20:57.178Z,26.50
2017-04-10T11:21:55.529Z,26.80
2017-04-10T11:22:53.912Z,27.40
2017-04-10T11:23:52.575Z,27.20
2017-04-10T11:24:51.773Z,28.20
2017-04-10T11:25:50.158Z,28.20
2017-04-10T11:26:48.548Z,29.30
2017-04-10T11:27:47.777Z,30.70
2017-04-10T11:28:46.148Z,30.70
2017-04-10T11:29:44.522Z,31.40
2017-04-10T11:30:42.952Z,31.50
2017-04-10T11:31:41.325Z,31.10
2017-04-10T11:32:39.680Z,30.10
2017-04-10T11:33:38.841Z,28.30
2017-04-10T11:34:38.003Z,27.50
2017-04-10T11:35:36.352Z,27.10
2017-04-10T11:36:34.946Z,28.40
2017-04-10T11:37:33.313Z,29.60
2017-04-10T11:38:31.867Z,30.10
2017-04-10T11:39:30.280Z,30.90
2017-04-10T11:40:28.666Z,31.50
2017-04-10T11:41:27.790Z,31.10
2017-04-10T11:42:26.261Z,31.00
2017-04-10T11:43:24.681Z,31.50
2017-04-10T11:44:23.053Z,31.20
2017-04-10T11:45:21.426Z,31.40
2017-04-10T11:46:20.583Z,32.40
2017-04-10T11:47:18.966Z,31.80
2017-04-10T11:48:17.389Z,32.60
2017-04-10T11:49:15.801Z,32.60
2017-04-10T11:50:14.496Z,32.50
2017-04-10T11:51:13.654Z,33.10
2017-04-10T11:52:12.114Z,33.00
2017-04-10T11:53:10.698Z,33.90
2017-04-10T11:54:09.121Z,34.90
2017-04-10T11:55:08.301Z,36.10
2017-04-10T11:56:06.712Z,36.10
2017-04-10T11:57:05.202Z,36.00
2017-04-10T11:58:05.089Z,36.70
2017-04-10T11:59:03.539Z,36.70
2017-04-10T12:00:01.972Z,37.40
2017-04-10T12:01:01.112Z,37.00
2017-04-10T12:01:59.480Z,37.00
2017-04-10T12:02:57.877Z,37.20
2017-04-10T12:03:56.237Z,37.20
2017-04-10T12:04:54.649Z,37.30
2017-04-10T12:05:53.688Z,37.50
2017-04-10T12:06:52.068Z,37.50
2017-04-10T12:07:50.429Z,37.70
2017-04-10T12:08:49.140Z,37.50
2017-04-10T12:09:48.288Z,37.20
2017-04-10T12:10:46.757Z,37.30
2017-04-10T12:11:45.286Z,37.00
2017-04-10T12:12:43.717Z,37.20
2017-04-10T12:13:42.868Z,36.90
2017-04-10T12:14:41.271Z,36.60
2017-04-10T12:15:39.662Z,36.90
2017-04-10T12:16:38.850Z,37.60
2017-04-10T12:17:37.986Z,38.00
2017-04-10T12:18:36.373Z,37.90
2017-04-10T12:19:35.537Z,38.40
2017-04-10T12:20:34.007Z,37.80
2017-04-10T12:21:32.468Z,38.50
2017-04-10T12:22:30.820Z,39.40
2017-04-10T12:23:29.257Z,39.40
2017-04-10T12:24:28.385Z,39.40
2017-04-10T12:25:26.746Z,39.30
2017-04-10T12:26:25.920Z,39.90
2017-04-10T12:27:24.317Z,39.90
2017-04-10T12:28:22.706Z,39.80
2017-04-10T12:29:22.588Z,40.00
2017-04-10T12:30:21.032Z,39.50
2017-04-10T12:31:19.489Z,39.30
2017-04-10T12:32:18.607Z,39.70
2017-04-10T12:33:16.974Z,39.70
2017-04-10T12:34:15.673Z,39.50
2017-04-10T12:35:14.130Z,40.10
2017-04-10T12:36:12.545Z,39.70
2017-04-10T12:37:11.706Z,39.30
2017-04-10T12:38:10.058Z,39.30
2017-04-10T12:39:08.460Z,38.70